Time;durP1;ratioP1;P1;durP2;ratioP2;P2;SDS_P1;SDS_P2;PMS_P1;PMS_P2;Temp;Humidity;BMP_temperature;BMP_pressure;BME280_temperature;BME280_humidity;BME280_pressure;Samples;Min_cycle;Max_cycle;Signal;HPM_P1;HPM_P2
2022/07/07 00:02:24;;;;;;;6.53;1.92;;;17.40;97.70;;;;;;4964132;28;20042;-61
2022/07/07 00:04:50;;;;;;;5.30;1.90;;;17.40;97.70;;;;;;4956141;28;20115;-59
2022/07/07 00:07:16;;;;;;;7.38;2.00;;;17.40;97.60;;;;;;4957406;28;20027;-60
2022/07/07 00:09:41;;;;;;;6.57;1.80;;;17.40;97.80;;;;;;4955836;28;20154;-60
2022/07/07 00:12:07;;;;;;;4.18;1.70;;;17.40;97.70;;;;;;4956161;28;20046;-58
2022/07/07 00:14:33;;;;;;;6.45;1.88;;;17.40;98.10;;;;;;4958307;28;20043;-60
2022/07/07 00:16:59;;;;;;;5.28;1.95;;;17.40;98.10;;;;;;4967191;28;20031;-59
2022/07/07 00:19:26;;;;;;;6.55;3.47;;;17.30;98.40;;;;;;4966596;28;20513;-58
2022/07/07 00:21:52;;;;;;;3.65;1.73;;;17.40;98.50;;;;;;4956054;28;20397;-58
2022/07/07 00:24:17;;;;;;;5.78;1.65;;;17.30;98.40;;;;;;4955922;28;20058;-60
2022/07/07 00:26:43;;;;;;;5.63;1.75;;;17.40;98.80;;;;;;4955920;29;20042;-59
2022/07/07 00:29:09;;;;;;;7.43;2.00;;;17.30;98.60;;;;;;4954378;28;20027;-60
2022/07/07 00:31:35;;;;;;;10.40;2.17;;;17.30;98.70;;;;;;4960099;28;20378;-58
2022/07/07 00:34:01;;;;;;;3.78;1.80;;;17.30;98.80;;;;;;4963409;28;20062;-60
2022/07/07 00:36:26;;;;;;;6.57;2.33;;;17.30;99.10;;;;;;4955342;28;20039;-60
2022/07/07 00:38:52;;;;;;;12.32;2.78;;;17.40;99.00;;;;;;4955982;28;20697;-60
2022/07/07 00:41:18;;;;;;;6.93;2.28;;;17.30;99.10;;;;;;4955175;28;20493;-59
2022/07/07 00:43:43;;;;;;;3.78;2.08;;;17.30;99.20;;;;;;4955615;28;20059;-59
2022/07/07 00:46:11;;;;;;;5.50;2.65;;;17.30;99.40;;;;;;4954641;28;20031;-60
2022/07/07 00:48:38;;;;;;;7.80;3.28;;;17.30;99.20;;;;;;4954022;28;20030;-59
2022/07/07 00:51:05;;;;;;;5.47;2.22;;;17.30;99.50;;;;;;4955126;28;20042;-58
2022/07/07 00:53:31;;;;;;;5.32;2.22;;;17.30;99.40;;;;;;4955675;28;20031;-58
2022/07/07 00:55:57;;;;;;;9.55;2.15;;;17.30;99.50;;;;;;4955365;28;20035;-58
2022/07/07 00:58:23;;;;;;;5.35;2.72;;;17.30;99.60;;;;;;4955216;29;20389;-60
2022/07/07 01:00:49;;;;;;;6.00;2.75;;;17.30;99.80;;;;;;4954153;28;20023;-58
2022/07/07 01:03:14;;;;;;;8.02;2.30;;;17.30;99.70;;;;;;4964075;28;20031;-59
2022/07/07 01:05:41;;;;;;;6.65;2.22;;;17.30;99.80;;;;;;4954955;28;20042;-59
2022/07/07 01:08:09;;;;;;;11.50;3.47;;;17.30;99.90;;;;;;4955127;28;20031;-57
2022/07/07 01:10:35;;;;;;;5.72;2.83;;;17.30;99.90;;;;;;4955137;28;20564;-59
2022/07/07 01:13:02;;;;;;;6.90;2.55;;;17.30;99.90;;;;;;4954924;28;20055;-58
2022/07/07 01:15:28;;;;;;;7.68;2.95;;;17.30;99.90;;;;;;4956188;28;20043;-60
2022/07/07 01:17:54;;;;;;;5.10;2.85;;;17.30;99.90;;;;;;4966215;28;20023;-60
2022/07/07 01:20:21;;;;;;;4.97;2.17;;;17.30;99.90;;;;;;4974290;28;20097;-58
2022/07/07 01:22:50;;;;;;;8.48;2.65;;;17.20;99.90;;;;;;4964450;28;20031;-59
2022/07/07 01:25:16;;;;;;;18.55;3.95;;;17.20;99.90;;;;;;4954934;28;20070;-60
2022/07/07 01:27:42;;;;;;;7.35;3.05;;;17.20;99.90;;;;;;4965884;28;20027;-55
2022/07/07 01:30:08;;;;;;;3.67;2.38;;;17.20;99.90;;;;;;4974096;28;20047;-58
2022/07/07 01:32:34;;;;;;;7.18;2.53;;;17.10;99.90;;;;;;4957641;28;20043;-60
2022/07/07 01:34:59;;;;;;;5.30;2.70;;;17.10;99.90;;;;;;4954428;28;20094;-60
2022/07/07 01:37:25;;;;;;;4.97;2.55;;;17.10;99.90;;;;;;4954508;29;20473;-59
2022/07/07 01:39:52;;;;;;;8.73;2.67;;;17.10;99.90;;;;;;4959231;28;20081;-60
2022/07/07 01:42:17;;;;;;;5.97;2.05;;;17.10;99.90;;;;;;4965834;28;20544;-59
2022/07/07 01:44:44;;;;;;;10.63;3.30;;;17.10;99.90;;;;;;4973750;28;20062;-61
2022/07/07 01:47:11;;;;;;;10.75;3.17;;;17.10;99.90;;;;;;4973996;28;20030;-60
2022/07/07 01:49:38;;;;;;;8.95;3.80;;;17.10;99.90;;;;;;4973809;28;20105;-59
2022/07/07 01:52:05;;;;;;;6.88;3.30;;;17.20;99.90;;;;;;4961823;28;20465;-60
2022/07/07 01:54:33;;;;;;;6.43;3.10;;;17.10;99.90;;;;;;4956386;28;20100;-58
2022/07/07 01:56:58;;;;;;;5.57;3.25;;;17.10;99.90;;;;;;4965341;28;20030;-59
2022/07/07 01:59:24;;;;;;;4.72;2.78;;;17.20;99.90;;;;;;4973545;28;20082;-61
2022/07/07 02:01:50;;;;;;;8.77;2.90;;;17.10;99.90;;;;;;4957181;28;20035;-60
2022/07/07 02:04:16;;;;;;;8.82;3.47;;;17.10;99.90;;;;;;4954143;28;20409;-60
2022/07/07 02:06:42;;;;;;;7.20;2.88;;;17.10;99.90;;;;;;4953880;29;20031;-60
2022/07/07 02:09:08;;;;;;;6.25;2.78;;;17.20;99.90;;;;;;4961415;28;20041;-58
2022/07/07 02:11:34;;;;;;;7.50;3.00;;;17.10;99.90;;;;;;4964943;28;20038;-58
2022/07/07 02:14:01;;;;;;;6.68;3.15;;;17.20;99.90;;;;;;4973510;28;20023;-59
2022/07/07 02:16:27;;;;;;;12.65;3.40;;;17.20;99.90;;;;;;4972116;28;20033;-60
2022/07/07 02:18:55;;;;;;;14.38;3.72;;;17.20;99.90;;;;;;4973323;28;20106;-58
2022/07/07 02:21:21;;;;;;;6.93;3.00;;;17.20;99.90;;;;;;4962694;28;20038;-58
2022/07/07 02:23:49;;;;;;;5.75;2.42;;;17.20;99.90;;;;;;4960961;28;20042;-59
2022/07/07 02:26:15;;;;;;;10.70;3.72;;;17.20;99.90;;;;;;4969865;28;20034;-60
2022/07/07 02:28:41;;;;;;;8.88;3.20;;;17.20;99.90;;;;;;4973133;28;20027;-60
2022/07/07 02:31:07;;;;;;;10.95;3.25;;;17.20;99.90;;;;;;4965083;28;20073;-59
2022/07/07 02:33:33;;;;;;;13.70;3.72;;;17.20;99.90;;;;;;4953799;28;20027;-59
2022/07/07 02:35:58;;;;;;;5.90;3.60;;;17.20;99.90;;;;;;4953439;28;20027;-58
2022/07/07 02:38:25;;;;;;;6.07;3.28;;;17.20;99.90;;;;;;4960832;28;20027;-60
2022/07/07 02:40:51;;;;;;;10.75;2.70;;;17.20;99.90;;;;;;4962210;28;20031;-60
2022/07/07 02:43:18;;;;;;;11.05;3.95;;;17.20;99.90;;;;;;4953665;28;20024;-58
2022/07/07 02:45:45;;;;;;;7.15;3.50;;;17.20;99.90;;;;;;4953522;28;20031;-59
2022/07/07 02:48:14;;;;;;;4.63;3.22;;;17.20;99.90;;;;;;4953909;28;20028;-60
2022/07/07 02:50:40;;;;;;;8.60;3.45;;;17.20;99.90;;;;;;4952975;28;20046;-58
2022/07/07 02:53:07;;;;;;;5.43;3.58;;;17.20;99.90;;;;;;4961149;28;20042;-58
2022/07/07 02:55:33;;;;;;;8.93;3.95;;;17.20;99.90;;;;;;4972082;28;20507;-60
2022/07/07 02:58:00;;;;;;;7.40;3.80;;;17.10;99.90;;;;;;4972911;28;20027;-59
2022/07/07 03:00:26;;;;;;;9.07;4.38;;;17.10;99.90;;;;;;4972013;28;20035;-61
2022/07/07 03:02:53;;;;;;;12.43;4.47;;;17.00;99.90;;;;;;4953097;28;20035;-58
2022/07/07 03:05:19;;;;;;;12.68;4.20;;;16.90;99.90;;;;;;4953556;28;20107;-59
2022/07/07 03:07:44;;;;;;;10.70;4.63;;;16.90;99.90;;;;;;4964515;28;20081;-59
2022/07/07 03:10:10;;;;;;;9.05;4.63;;;16.90;99.90;;;;;;4957919;28;20035;-61
2022/07/07 03:12:36;;;;;;;8.00;4.88;;;16.80;99.90;;;;;;4953671;28;20023;-61
2022/07/07 03:15:02;;;;;;;17.73;5.18;;;16.70;99.90;;;;;;4953472;29;20393;-59
2022/07/07 03:17:27;;;;;;;12.75;5.53;;;16.70;99.90;;;;;;4953371;28;20026;-60
2022/07/07 03:19:53;;;;;;;9.15;5.68;;;16.70;99.90;;;;;;4952703;28;20031;-60
2022/07/07 03:22:19;;;;;;;12.35;5.57;;;16.60;99.90;;;;;;4962471;28;20031;-61
2022/07/07 03:24:44;;;;;;;10.98;5.40;;;16.60;99.90;;;;;;4972397;28;20023;-60
2022/07/07 03:27:10;;;;;;;9.32;5.18;;;16.60;99.90;;;;;;4973590;28;20023;-60
2022/07/07 03:29:36;;;;;;;12.65;5.30;;;16.60;99.90;;;;;;4967025;28;20066;-59
2022/07/07 03:32:02;;;;;;;11.82;5.32;;;16.50;99.90;;;;;;4956502;29;20023;-59
2022/07/07 03:34:28;;;;;;;9.35;5.00;;;16.50;99.90;;;;;;4958171;28;20023;-61
2022/07/07 03:36:53;;;;;;;10.80;4.80;;;16.50;99.90;;;;;;4967769;28;20041;-61
2022/07/07 03:39:19;;;;;;;9.60;5.13;;;16.50;99.90;;;;;;4969417;28;20024;-60
2022/07/07 03:41:45;;;;;;;15.50;5.38;;;16.50;99.90;;;;;;4956879;29;20035;-60
2022/07/07 03:44:10;;;;;;;15.80;5.47;;;16.50;99.90;;;;;;4956829;28;20027;-58
2022/07/07 03:46:36;;;;;;;10.57;4.80;;;16.50;99.90;;;;;;4956698;29;20042;-60
2022/07/07 03:49:02;;;;;;;8.95;5.85;;;16.40;99.90;;;;;;4962196;28;20118;-59
2022/07/07 03:51:28;;;;;;;9.73;4.65;;;16.40;99.90;;;;;;4967795;28;20039;-61
2022/07/07 03:53:53;;;;;;;13.73;5.43;;;16.40;99.90;;;;;;4962493;28;20037;-60
2022/07/07 03:56:19;;;;;;;9.52;5.03;;;16.40;99.90;;;;;;4957154;29;20031;-60
2022/07/07 03:58:45;;;;;;;10.60;4.97;;;16.40;99.90;;;;;;4956250;29;20558;-61
2022/07/07 04:01:10;;;;;;;8.35;5.03;;;16.40;99.90;;;;;;4956513;29;20027;-60
2022/07/07 04:03:37;;;;;;;9.32;5.28;;;16.40;99.90;;;;;;4959197;28;20448;-60
2022/07/07 04:06:04;;;;;;;14.27;5.82;;;16.40;99.90;;;;;;4960332;28;20501;-57
2022/07/07 04:08:29;;;;;;;8.70;4.95;;;16.40;99.90;;;;;;4955883;28;20074;-60
2022/07/07 04:10:55;;;;;;;8.23;4.47;;;16.40;99.90;;;;;;4961384;28;20027;-60
2022/07/07 04:13:21;;;;;;;7.32;4.35;;;16.40;99.90;;;;;;4967340;28;20031;-61
2022/07/07 04:15:46;;;;;;;11.70;4.80;;;16.40;99.90;;;;;;4975155;28;20058;-57
2022/07/07 04:18:12;;;;;;;11.40;4.60;;;16.40;99.90;;;;;;4964047;28;20050;-60
2022/07/07 04:20:37;;;;;;;8.18;4.40;;;16.40;99.90;;;;;;4963740;28;20394;-61
2022/07/07 04:23:03;;;;;;;7.47;4.50;;;16.40;99.90;;;;;;4955983;28;20043;-61
2022/07/07 04:25:28;;;;;;;9.90;5.28;;;16.40;99.90;;;;;;4955690;28;20470;-61
2022/07/07 04:27:54;;;;;;;7.20;4.55;;;16.40;99.90;;;;;;4955580;28;20070;-60
2022/07/07 04:30:20;;;;;;;6.65;4.22;;;16.50;99.90;;;;;;4955767;28;20031;-61
2022/07/07 04:32:45;;;;;;;7.68;5.47;;;16.40;99.90;;;;;;4963129;28;20066;-59
2022/07/07 04:35:11;;;;;;;8.15;3.95;;;16.50;99.90;;;;;;4971610;28;20624;-59
2022/07/07 04:37:37;;;;;;;9.15;4.13;;;16.50;99.90;;;;;;4974995;28;20031;-60
2022/07/07 04:40:03;;;;;;;7.32;4.88;;;16.50;99.90;;;;;;4956634;28;20023;-61
2022/07/07 04:42:29;;;;;;;8.85;4.20;;;16.50;99.90;;;;;;4955608;28;20042;-61
2022/07/07 04:44:55;;;;;;;10.52;4.20;;;16.50;99.90;;;;;;4955311;28;20019;-61
2022/07/07 04:47:21;;;;;;;8.68;4.95;;;16.50;99.90;;;;;;4962875;28;20053;-61
2022/07/07 04:49:47;;;;;;;9.77;3.80;;;16.50;99.90;;;;;;4961187;28;20480;-62
2022/07/07 04:52:12;;;;;;;7.93;4.30;;;16.50;99.90;;;;;;4966760;28;20407;-59
2022/07/07 04:54:38;;;;;;;11.68;4.75;;;16.60;99.90;;;;;;4974483;28;20089;-60
2022/07/07 04:57:04;;;;;;;8.10;3.95;;;16.60;99.90;;;;;;4974557;28;20026;-59
2022/07/07 04:59:30;;;;;;;11.65;4.60;;;16.60;99.90;;;;;;4966834;28;20019;-60
2022/07/07 05:01:55;;;;;;;7.60;3.38;;;16.60;99.90;;;;;;4955274;28;20477;-60
2022/07/07 05:04:21;;;;;;;7.90;4.40;;;16.70;99.90;;;;;;4962193;28;20030;-58
2022/07/07 05:06:47;;;;;;;8.00;4.20;;;16.70;99.90;;;;;;4967564;28;20035;-59
2022/07/07 05:09:12;;;;;;;6.38;4.05;;;16.70;99.90;;;;;;4970500;28;20446;-59
2022/07/07 05:11:38;;;;;;;7.70;4.00;;;16.80;99.90;;;;;;4961504;28;20058;-60
2022/07/07 05:14:04;;;;;;;7.32;3.33;;;16.80;99.90;;;;;;4963512;28;20039;-59
2022/07/07 05:16:30;;;;;;;10.00;3.30;;;16.90;99.90;;;;;;4973314;28;20066;-60
2022/07/07 05:18:56;;;;;;;8.93;4.32;;;16.90;99.90;;;;;;4974609;28;20033;-59
2022/07/07 05:21:22;;;;;;;7.47;3.95;;;16.90;99.90;;;;;;4974496;28;20023;-60
2022/07/07 05:23:48;;;;;;;7.63;3.70;;;16.90;99.90;;;;;;4959031;28;20031;-61
2022/07/07 05:26:14;;;;;;;7.63;3.22;;;16.90;99.90;;;;;;4953845;28;20166;-60
2022/07/07 05:28:42;;;;;;;8.65;3.75;;;16.90;99.90;;;;;;4955988;28;20384;-59
2022/07/07 05:31:10;;;;;;;11.38;3.67;;;16.80;99.90;;;;;;4958043;28;20402;-59
2022/07/07 05:33:36;;;;;;;7.68;3.80;;;16.80;99.90;;;;;;4954948;28;20035;-61
2022/07/07 05:36:02;;;;;;;9.73;3.72;;;16.80;99.90;;;;;;4954425;28;20028;-58
2022/07/07 05:38:29;;;;;;;5.78;3.33;;;16.80;99.90;;;;;;4954271;28;20023;-61
2022/07/07 05:40:54;;;;;;;9.18;3.20;;;16.90;99.90;;;;;;4953872;28;20027;-61
2022/07/07 05:43:20;;;;;;;5.82;3.17;;;16.90;99.90;;;;;;4963523;28;20031;-60
2022/07/07 05:45:46;;;;;;;8.68;3.50;;;16.90;99.90;;;;;;4973722;28;20058;-58
2022/07/07 05:48:11;;;;;;;6.82;3.08;;;16.90;99.90;;;;;;4972341;28;20073;-60
2022/07/07 05:50:37;;;;;;;7.90;3.28;;;17.00;99.90;;;;;;4954191;28;20037;-59
2022/07/07 05:53:03;;;;;;;12.32;3.75;;;17.00;99.90;;;;;;4954259;28;20039;-60
2022/07/07 05:55:29;;;;;;;9.27;3.58;;;17.00;99.90;;;;;;4955679;28;20102;-60
2022/07/07 05:57:55;;;;;;;7.85;3.13;;;17.00;99.90;;;;;;4965173;28;20105;-59
2022/07/07 06:00:20;;;;;;;5.00;3.00;;;17.00;99.90;;;;;;4962649;28;20030;-61
2022/07/07 06:02:46;;;;;;;7.15;3.03;;;17.00;99.90;;;;;;4954026;28;20035;-61
2022/07/07 06:05:12;;;;;;;6.43;3.00;;;17.00;99.90;;;;;;4953661;29;20098;-56
2022/07/07 06:07:38;;;;;;;4.38;2.80;;;16.90;99.90;;;;;;4955285;29;20027;-59
2022/07/07 06:10:04;;;;;;;10.98;3.08;;;16.90;99.90;;;;;;4953346;28;20031;-59
2022/07/07 06:12:29;;;;;;;6.53;3.70;;;16.90;99.90;;;;;;4964419;28;20027;-59
2022/07/07 06:14:55;;;;;;;7.60;3.17;;;16.90;99.90;;;;;;4960429;28;20500;-58
2022/07/07 06:17:20;;;;;;;9.95;3.63;;;16.90;99.90;;;;;;4953902;29;20031;-58
2022/07/07 06:19:46;;;;;;;5.72;3.58;;;16.90;99.90;;;;;;4953996;29;20043;-60
2022/07/07 06:22:12;;;;;;;6.10;4.40;;;16.90;99.90;;;;;;4953790;29;20027;-57
2022/07/07 06:24:37;;;;;;;6.47;4.00;;;16.90;99.90;;;;;;4952447;28;20041;-57
2022/07/07 06:27:03;;;;;;;10.95;3.97;;;16.80;99.90;;;;;;4961875;28;20037;-59
2022/07/07 06:29:29;;;;;;;9.57;4.93;;;16.60;99.90;;;;;;4954138;28;20031;-58
2022/07/07 06:31:55;;;;;;;6.63;4.50;;;16.50;99.90;;;;;;4953595;28;20087;-60
2022/07/07 06:34:20;;;;;;;8.13;4.35;;;16.50;99.90;;;;;;4953370;28;20035;-60
2022/07/07 06:36:46;;;;;;;7.20;3.90;;;16.40;99.90;;;;;;4953627;29;20041;-60
2022/07/07 06:39:11;;;;;;;6.82;3.45;;;16.40;99.90;;;;;;4953782;28;20031;-60
2022/07/07 06:41:38;;;;;;;6.93;3.20;;;16.30;99.90;;;;;;4961510;28;20098;-61
2022/07/07 06:44:05;;;;;;;7.70;3.63;;;16.30;99.90;;;;;;4953667;28;20030;-59
2022/07/07 06:46:31;;;;;;;8.25;3.38;;;16.30;99.90;;;;;;4953421;28;20110;-57
2022/07/07 06:48:57;;;;;;;8.25;3.63;;;16.30;99.90;;;;;;4952652;28;20066;-58
2022/07/07 06:51:23;;;;;;;8.88;2.95;;;16.30;99.90;;;;;;4962777;28;20112;-59
2022/07/07 06:53:48;;;;;;;4.30;2.72;;;16.30;99.90;;;;;;4972974;28;20537;-59
2022/07/07 06:56:14;;;;;;;9.15;3.65;;;16.40;99.90;;;;;;4972547;28;20078;-61
2022/07/07 06:58:39;;;;;;;8.35;3.35;;;16.40;99.90;;;;;;4972939;28;20392;-61
2022/07/07 07:01:05;;;;;;;7.50;2.53;;;16.40;99.90;;;;;;4967576;28;20103;-59
2022/07/07 07:03:31;;;;;;;6.45;2.83;;;16.50;99.90;;;;;;4955275;28;20460;-59
2022/07/07 07:05:57;;;;;;;7.40;2.63;;;16.50;99.90;;;;;;4964754;28;20046;-61
2022/07/07 07:08:22;;;;;;;5.15;2.63;;;16.50;99.90;;;;;;4957347;28;20024;-61
2022/07/07 07:10:48;;;;;;;4.38;2.53;;;16.60;99.90;;;;;;4957641;28;20078;-60
2022/07/07 07:13:14;;;;;;;6.80;2.85;;;16.60;99.90;;;;;;4957269;28;20114;-60
2022/07/07 07:15:39;;;;;;;5.07;2.40;;;16.70;99.90;;;;;;4954414;28;21341;-58
2022/07/07 07:18:06;;;;;;;2.75;2.55;;;16.90;99.90;;;;;;4964007;28;20034;-60
2022/07/07 07:20:32;;;;;;;3.92;2.45;;;17.00;99.90;;;;;;4960257;28;20024;-60
2022/07/07 07:22:58;;;;;;;12.60;2.28;;;17.10;99.90;;;;;;4968447;28;20401;-60
2022/07/07 07:25:24;;;;;;;7.07;2.15;;;17.20;99.90;;;;;;4959274;28;20031;-59
2022/07/07 07:27:50;;;;;;;5.47;1.85;;;17.10;99.90;;;;;;4956953;28;20045;-58
2022/07/07 07:30:16;;;;;;;3.72;1.52;;;17.10;99.90;;;;;;4962935;28;20071;-60
2022/07/07 07:32:42;;;;;;;2.60;1.33;;;17.00;99.90;;;;;;4961644;28;20030;-59
2022/07/07 07:35:08;;;;;;;4.53;1.25;;;17.20;99.90;;;;;;4956587;28;20082;-60
2022/07/07 07:37:34;;;;;;;1.27;0.85;;;17.30;99.90;;;;;;4956892;28;20105;-60
2022/07/07 07:40:00;;;;;;;2.15;0.70;;;17.70;99.90;;;;;;4956808;29;20470;-61
2022/07/07 07:42:25;;;;;;;2.22;1.25;;;17.60;99.90;;;;;;4956506;29;20034;-59
2022/07/07 07:45:09;;;;;;;1.55;1.00;;;17.60;99.90;;;;;;4963288;28;20023;-60
2022/07/07 07:47:35;;;;;;;2.15;1.38;;;17.70;99.90;;;;;;4975834;28;20051;-59
2022/07/07 07:50:01;;;;;;;3.55;1.20;;;17.70;99.90;;;;;;4975948;28;20448;-58
2022/07/07 07:52:26;;;;;;;6.60;1.38;;;17.60;99.90;;;;;;4967068;28;20028;-61
2022/07/07 07:54:52;;;;;;;2.45;1.80;;;18.00;99.90;;;;;;4967779;28;20110;-60
2022/07/07 07:57:18;;;;;;;3.45;1.30;;;18.80;99.90;;;;;;4973865;28;20026;-59
2022/07/07 07:59:44;;;;;;;2.38;1.33;;;20.00;99.90;;;;;;4964293;28;20026;-60
2022/07/07 08:02:09;;;;;;;1.85;1.23;;;20.90;99.90;;;;;;4970377;28;20065;-59
2022/07/07 08:04:35;;;;;;;3.30;1.08;;;21.40;99.90;;;;;;4956157;29;20031;-59
2022/07/07 08:07:00;;;;;;;3.80;1.20;;;21.00;99.90;;;;;;4956261;29;20027;-57
2022/07/07 08:09:27;;;;;;;1.48;1.10;;;21.20;99.90;;;;;;4955048;29;20067;-59
2022/07/07 08:11:52;;;;;;;1.48;0.90;;;21.90;99.90;;;;;;4956375;28;20027;-56
2022/07/07 08:14:18;;;;;;;2.33;1.20;;;21.70;99.90;;;;;;4963359;28;20031;-56
2022/07/07 08:16:44;;;;;;;1.92;1.33;;;21.80;99.90;;;;;;4956009;28;20118;-58
2022/07/07 08:19:09;;;;;;;6.50;1.65;;;21.20;99.90;;;;;;4956472;28;20023;-59
2022/07/07 08:21:35;;;;;;;5.90;2.47;;;20.40;99.90;;;;;;4956214;28;20082;-59
2022/07/07 08:24:01;;;;;;;4.53;1.85;;;20.00;99.90;;;;;;4955675;28;20612;-59
2022/07/07 08:26:27;;;;;;;6.10;2.45;;;19.40;99.90;;;;;;4954907;28;20103;-60
2022/07/07 08:28:52;;;;;;;4.53;1.90;;;18.80;99.90;;;;;;4962461;28;20478;-59
2022/07/07 08:31:18;;;;;;;2.55;1.80;;;18.20;99.90;;;;;;4972525;28;20496;-59
2022/07/07 08:33:44;;;;;;;2.85;1.00;;;17.80;99.90;;;;;;4963085;28;20042;-60
2022/07/07 08:36:09;;;;;;;3.55;1.25;;;17.50;99.90;;;;;;4955444;29;20137;-61
2022/07/07 08:38:35;;;;;;;2.40;1.30;;;17.70;99.90;;;;;;4955711;29;20029;-60
2022/07/07 08:41:01;;;;;;;4.53;1.05;;;18.00;99.90;;;;;;4954962;28;20019;-62
2022/07/07 08:43:28;;;;;;;2.58;1.17;;;18.40;99.90;;;;;;4965302;28;20027;-61
2022/07/07 08:45:53;;;;;;;4.25;1.30;;;18.30;99.90;;;;;;4974761;28;20054;-61
2022/07/07 08:48:20;;;;;;;4.43;1.38;;;18.90;99.90;;;;;;4959692;28;20070;-61
2022/07/07 08:50:46;;;;;;;6.35;1.38;;;19.60;99.90;;;;;;4955634;28;20031;-59
2022/07/07 08:53:13;;;;;;;2.28;1.73;;;20.70;99.90;;;;;;4955067;28;20126;-62
2022/07/07 08:55:41;;;;;;;2.97;1.05;;;21.50;99.90;;;;;;4958965;28;20111;-60
2022/07/07 08:58:09;;;;;;;3.28;1.30;;;21.80;99.90;;;;;;4971488;28;20102;-60
2022/07/07 09:00:34;;;;;;;4.20;1.27;;;22.10;99.90;;;;;;4974745;28;20589;-58
2022/07/07 09:03:03;;;;;;;3.88;0.90;;;21.30;99.90;;;;;;4961287;28;20035;-60
2022/07/07 09:05:37;;;;;;;2.75;1.10;;;21.60;99.90;;;;;;4955085;28;20556;-60
2022/07/07 09:08:20;;;;;;;4.75;1.17;;;21.60;99.90;;;;;;4955073;28;20106;-62
2022/07/07 09:10:46;;;;;;;3.08;1.00;;;21.40;99.90;;;;;;4961223;28;20061;-60
2022/07/07 09:13:32;;;;;;;3.28;1.38;;;20.90;99.90;;;;;;4971223;28;20442;-61
2022/07/07 09:16:01;;;;;;;3.13;1.48;;;20.40;99.90;;;;;;4974247;28;20022;-58
2022/07/07 09:18:38;;;;;;;4.63;1.23;;;20.00;99.90;;;;;;4962424;28;20023;-60
2022/07/07 09:21:06;;;;;;;4.20;1.40;;;19.70;99.90;;;;;;4962879;28;20031;-60
2022/07/07 09:23:33;;;;;;;8.63;1.65;;;19.10;99.90;;;;;;4973660;28;20041;-61
2022/07/07 09:26:00;;;;;;;4.53;1.13;;;19.00;99.90;;;;;;4973514;28;20023;-60
2022/07/07 09:28:26;;;;;;;10.65;2.15;;;18.70;99.90;;;;;;4973051;28;20038;-60
2022/07/07 09:30:53;;;;;;;5.05;1.40;;;18.80;99.90;;;;;;4954465;28;20035;-59
2022/07/07 09:33:24;;;;;;;12.82;1.38;;;18.90;99.90;;;;;;4955262;28;20030;-60
2022/07/07 09:38:38;;;;;;;7.85;1.58;;;19.60;99.90;;;;;;4972438;28;20535;-61
2022/07/07 09:41:13;;;;;;;4.30;1.00;;;19.90;99.90;;;;;;4950918;29;20030;-59
2022/07/07 09:43:51;;;;;;;3.28;1.13;;;20.50;99.90;;;;;;4954594;28;20144;-61
2022/07/07 09:46:16;;;;;;;5.70;1.10;;;20.70;99.90;;;;;;4954274;28;20031;-60
2022/07/07 09:48:49;;;;;;;4.43;1.33;;;20.60;99.90;;;;;;4961573;28;20098;-60
2022/07/07 09:51:30;;;;;;;2.78;1.15;;;20.50;99.90;;;;;;4968147;28;20113;-60
2022/07/07 09:54:10;;;;;;;4.22;1.13;;;21.10;99.90;;;;;;4973438;28;20035;-64
2022/07/07 09:56:39;;;;;;;4.57;0.75;;;21.60;99.90;;;;;;4973329;28;20061;-61
2022/07/07 09:59:10;;;;;;;4.50;0.85;;;22.30;99.60;;;;;;4957795;28;20465;-60
2022/07/07 10:01:38;;;;;;;12.45;1.10;;;22.40;98.90;;;;;;4953501;28;20042;-62
2022/07/07 10:04:09;;;;;;;9.40;0.88;;;22.30;98.20;;;;;;4962081;28;20105;-60
2022/07/07 10:06:37;;;;;;;3.15;1.00;;;22.80;96.90;;;;;;4973184;28;20089;-61
2022/07/07 10:09:06;;;;;;;3.33;1.00;;;23.00;96.80;;;;;;4958460;28;20115;-61
2022/07/07 10:11:43;;;;;;;3.20;0.80;;;23.60;96.70;;;;;;4954463;28;20034;-60
2022/07/07 10:14:15;;;;;;;2.88;1.08;;;23.20;94.40;;;;;;4954050;28;20035;-58
2022/07/07 10:16:42;;;;;;;5.63;0.73;;;22.20;95.80;;;;;;4956852;28;20062;-60
2022/07/07 10:19:13;;;;;;;5.38;1.20;;;21.80;96.70;;;;;;4964819;28;20046;-59
2022/07/07 10:21:45;;;;;;;4.80;0.95;;;21.10;97.30;;;;;;4973341;28;20031;-61
2022/07/07 10:24:12;;;;;;;6.60;1.50;;;20.50;98.90;;;;;;4963695;28;20539;-62
2022/07/07 10:26:58;;;;;;;4.15;1.50;;;20.10;99.40;;;;;;4953580;28;20031;-60
2022/07/07 10:29:49;;;;;;;2.65;1.05;;;20.00;99.90;;;;;;4953954;28;20027;-58
2022/07/07 10:32:18;;;;;;;6.00;1.17;;;20.00;99.90;;;;;;4960818;28;20527;-59
2022/07/07 10:34:50;;;;;;;4.85;1.42;;;19.40;99.90;;;;;;4958606;28;20031;-61
2022/07/07 10:37:17;;;;;;;3.67;1.30;;;19.10;99.90;;;;;;4961553;28;20056;-61
2022/07/07 10:39:48;;;;;;;6.82;2.00;;;18.90;99.90;;;;;;4973153;28;20026;-61
2022/07/07 10:42:16;;;;;;;5.15;1.58;;;18.50;99.90;;;;;;4973402;28;20054;-61
2022/07/07 10:44:53;;;;;;;5.45;1.60;;;18.40;99.90;;;;;;4970084;28;20066;-61
2022/07/07 10:47:22;;;;;;;5.60;1.60;;;18.80;99.90;;;;;;4953898;28;20031;-61
2022/07/07 10:49:57;;;;;;;6.38;2.63;;;19.30;99.90;;;;;;4957979;28;20026;-60
2022/07/07 10:52:28;;;;;;;7.85;1.23;;;20.00;99.90;;;;;;4964982;28;20397;-61
2022/07/07 10:55:01;;;;;;;7.25;1.50;;;20.60;99.90;;;;;;4969653;28;20151;-61
2022/07/07 10:57:38;;;;;;;2.50;1.05;;;21.20;99.90;;;;;;4953364;28;20165;-60
2022/07/07 11:00:08;;;;;;;6.45;1.23;;;21.00;99.90;;;;;;4953745;28;20031;-61
2022/07/07 11:02:42;;;;;;;5.90;1.23;;;20.80;99.90;;;;;;4952901;28;20046;-60
2022/07/07 11:05:14;;;;;;;4.28;1.40;;;20.90;99.90;;;;;;4960293;28;20027;-60
2022/07/07 11:07:56;;;;;;;3.58;1.08;;;20.20;99.90;;;;;;4934264;29;20032;-61
2022/07/07 11:10:23;;;;;;;5.68;1.42;;;20.00;99.90;;;;;;4934702;29;20032;-61
2022/07/07 11:12:52;;;;;;;4.07;1.58;;;19.60;99.90;;;;;;4944338;29;20397;-60
2022/07/07 11:15:21;;;;;;;3.42;1.25;;;19.40;99.90;;;;;;4953225;28;20508;-60
2022/07/07 11:18:06;;;;;;;4.95;1.48;;;19.60;99.90;;;;;;4952589;28;20040;-60
2022/07/07 11:20:32;;;;;;;3.58;1.08;;;19.90;99.90;;;;;;4964259;28;20031;-60
2022/07/07 11:23:10;;;;;;;3.05;1.33;;;19.80;99.90;;;;;;4961532;28;20023;-61
2022/07/07 11:25:37;;;;;;;2.65;1.33;;;20.20;99.90;;;;;;4953103;28;20024;-60
2022/07/07 11:28:08;;;;;;;3.83;0.85;;;20.70;99.90;;;;;;4953343;28;20036;-61
2022/07/07 11:30:35;;;;;;;1.65;0.90;;;21.00;99.90;;;;;;4952832;28;20053;-61
2022/07/07 11:33:02;;;;;;;6.13;1.20;;;21.10;99.90;;;;;;4952297;28;20035;-59
2022/07/07 11:35:37;;;;;;;2.85;0.93;;;21.10;99.90;;;;;;4964940;28;20361;-61
2022/07/07 11:38:09;;;;;;;2.50;1.02;;;21.30;99.90;;;;;;4968052;28;20493;-61
2022/07/07 11:40:38;;;;;;;8.70;1.25;;;20.90;99.90;;;;;;4972600;28;20033;-61
2022/07/07 11:43:05;;;;;;;4.55;1.05;;;21.20;99.90;;;;;;4962604;28;20034;-61
2022/07/07 11:45:32;;;;;;;5.50;1.10;;;21.10;99.90;;;;;;4953060;28;20034;-61
2022/07/07 11:48:00;;;;;;;4.18;1.33;;;21.00;99.60;;;;;;4959135;28;20373;-58
2022/07/07 11:50:28;;;;;;;2.15;1.20;;;20.80;99.90;;;;;;4968000;28;20030;-60
2022/07/07 11:53:00;;;;;;;5.88;1.33;;;20.60;99.90;;;;;;4968582;28;20441;-60
2022/07/07 11:55:27;;;;;;;4.55;1.45;;;20.40;99.90;;;;;;4956397;28;20059;-61
2022/07/07 11:57:54;;;;;;;5.55;1.23;;;20.10;99.90;;;;;;4956405;28;20042;-59
2022/07/07 12:00:22;;;;;;;3.38;1.00;;;19.80;99.90;;;;;;4956671;28;20026;-60
2022/07/07 12:02:51;;;;;;;5.57;0.95;;;19.40;99.90;;;;;;4963476;28;20031;-61
2022/07/07 12:05:38;;;;;;;2.83;1.15;;;19.00;99.90;;;;;;4968477;28;20481;-61
2022/07/07 12:08:09;;;;;;;6.10;1.42;;;18.70;99.90;;;;;;4937149;29;20032;-61
2022/07/07 12:10:38;;;;;;;4.47;1.33;;;18.50;99.90;;;;;;4937221;29;20039;-61
2022/07/07 12:13:10;;;;;;;5.90;1.42;;;18.40;99.90;;;;;;4936996;29;20043;-59
2022/07/07 12:15:46;;;;;;;4.55;1.88;;;18.50;99.90;;;;;;4952562;29;20139;-61
2022/07/07 12:18:13;;;;;;;4.45;1.10;;;18.70;99.90;;;;;;4956084;28;20035;-61
2022/07/07 12:20:40;;;;;;;5.63;1.00;;;19.40;99.90;;;;;;4956173;28;20023;-60
2022/07/07 12:23:09;;;;;;;4.05;1.00;;;19.80;99.90;;;;;;4956019;28;20032;-61
2022/07/07 12:25:35;;;;;;;2.85;0.80;;;20.10;99.90;;;;;;4955615;28;20042;-59
2022/07/07 12:28:03;;;;;;;1.35;0.77;;;20.30;99.90;;;;;;4955990;28;20075;-62
2022/07/07 12:30:34;;;;;;;2.72;0.70;;;20.10;99.90;;;;;;4955457;28;20046;-59
2022/07/07 12:33:00;;;;;;;4.03;0.98;;;20.00;99.90;;;;;;4955949;28;20028;-61
2022/07/07 12:35:26;;;;;;;2.42;1.63;;;19.70;99.90;;;;;;4955677;29;20030;-61
2022/07/07 12:37:52;;;;;;;2.80;1.10;;;19.50;99.90;;;;;;4955043;28;20050;-58
2022/07/07 12:40:18;;;;;;;5.03;1.17;;;19.40;99.90;;;;;;4955759;29;20024;-59
2022/07/07 12:42:47;;;;;;;3.55;1.52;;;18.90;99.90;;;;;;4955818;28;20119;-60
2022/07/07 12:45:14;;;;;;;4.47;1.23;;;18.60;99.90;;;;;;4955571;28;20463;-59
2022/07/07 12:47:51;;;;;;;6.85;1.23;;;18.20;99.90;;;;;;4955701;28;20051;-57
2022/07/07 12:50:18;;;;;;;8.65;1.88;;;18.00;99.90;;;;;;4954846;28;20393;-59